createdAt,value
2018-11-12T00:01:52.475Z,11.30
2018-11-12T00:04:22.967Z,11.30
2018-11-12T00:06:53.459Z,11.30
2018-11-12T00:09:23.814Z,11.30
2018-11-12T00:11:54.559Z,11.20
2018-11-12T00:14:24.979Z,11.20
2018-11-12T00:16:55.450Z,11.20
2018-11-12T00:19:25.807Z,11.30
2018-11-12T00:21:56.029Z,11.30
2018-11-12T00:24:26.355Z,11.30
2018-11-12T00:26:57.302Z,11.30
2018-11-12T00:29:27.502Z,11.20
2018-11-12T00:31:57.706Z,11.20
2018-11-12T00:34:27.944Z,11.20
2018-11-12T00:36:58.412Z,11.20
2018-11-12T00:39:28.627Z,11.10
2018-11-12T00:41:59.380Z,11.10
2018-11-12T00:44:29.684Z,11.30
2018-11-12T00:47:00.084Z,11.30
2018-11-12T00:49:30.649Z,11.30
2018-11-12T00:52:00.899Z,11.20
2018-11-12T00:54:31.297Z,11.30
2018-11-12T00:57:01.621Z,11.30
2018-11-12T00:59:32.382Z,11.40
2018-11-12T01:02:02.574Z,11.30
2018-11-12T01:04:33.036Z,11.40
2018-11-12T01:07:03.332Z,11.30
2018-11-12T01:09:33.455Z,11.20
2018-11-12T01:12:03.635Z,11.20
2018-11-12T01:14:33.989Z,11.20
2018-11-12T01:17:04.359Z,11.10
2018-11-12T01:19:34.863Z,11.10
2018-11-12T01:22:05.144Z,11.20
2018-11-12T01:24:35.404Z,11.10
2018-11-12T01:27:05.830Z,11.10
2018-11-12T01:29:36.066Z,11.10
2018-11-12T01:32:06.599Z,11.10
2018-11-12T01:34:37.035Z,11.00
2018-11-12T01:37:07.700Z,11.00
2018-11-12T01:39:38.116Z,11.00
2018-11-12T01:42:09.347Z,10.90
2018-11-12T01:44:40.140Z,10.90
2018-11-12T01:47:10.670Z,10.90
2018-11-12T01:49:40.963Z,10.90
2018-11-12T01:52:11.421Z,10.90
2018-11-12T01:54:41.745Z,11.00
2018-11-12T01:57:12.161Z,11.00
2018-11-12T01:59:42.744Z,11.00
2018-11-12T02:02:12.972Z,11.00
2018-11-12T02:04:43.190Z,11.10
2018-11-12T02:07:14.357Z,11.20
2018-11-12T02:09:45.317Z,11.30
2018-11-12T02:12:15.557Z,11.30
2018-11-12T02:14:46.161Z,11.20
2018-11-12T02:17:16.620Z,11.30
2018-11-12T02:19:46.978Z,11.40
2018-11-12T02:22:17.333Z,11.30
2018-11-12T02:24:48.052Z,11.30
2018-11-12T02:27:18.397Z,11.30
2018-11-12T02:29:48.702Z,11.20
2018-11-12T02:32:18.990Z,11.10
2018-11-12T02:34:49.440Z,11.00
2018-11-12T02:37:19.851Z,11.00
2018-11-12T02:39:50.134Z,11.00
2018-11-12T02:42:20.487Z,11.00
2018-11-12T02:44:50.705Z,10.90
2018-11-12T02:47:21.247Z,10.90
2018-11-12T02:49:51.651Z,11.10
2018-11-12T02:52:22.066Z,11.00
2018-11-12T02:54:52.443Z,11.10
2018-11-12T02:57:22.870Z,11.00
2018-11-12T02:59:53.348Z,10.90
2018-11-12T03:02:23.984Z,10.90
2018-11-12T03:04:54.143Z,10.90
2018-11-12T03:07:24.649Z,11.00
2018-11-12T03:09:54.999Z,10.90
2018-11-12T03:12:25.387Z,10.90
2018-11-12T03:14:55.995Z,10.90
2018-11-12T03:17:26.250Z,10.90
2018-11-12T03:19:56.576Z,10.90
2018-11-12T03:22:27.237Z,10.80
2018-11-12T03:24:57.585Z,10.90
2018-11-12T03:27:28.326Z,10.90
2018-11-12T03:29:58.572Z,10.90
2018-11-12T03:32:29.107Z,10.90
2018-11-12T03:34:59.631Z,10.90
2018-11-12T03:37:29.920Z,11.00
2018-11-12T03:40:00.307Z,10.90
2018-11-12T03:42:30.998Z,10.90
2018-11-12T03:45:01.278Z,10.80
2018-11-12T03:47:31.579Z,10.80
2018-11-12T03:50:01.956Z,10.80
2018-11-12T03:52:32.250Z,10.80
2018-11-12T03:55:02.471Z,10.80
2018-11-12T03:57:33.207Z,10.80
2018-11-12T04:00:03.657Z,10.70
2018-11-12T04:02:33.899Z,10.70
2018-11-12T04:05:04.335Z,10.80
2018-11-12T04:07:34.616Z,10.70
2018-11-12T04:10:05.997Z,10.80
2018-11-12T04:12:36.497Z,10.90
2018-11-12T04:15:09.434Z,10.90
2018-11-12T04:17:39.778Z,10.90
2018-11-12T04:20:12.900Z,10.90
2018-11-12T04:22:47.149Z,10.90
2018-11-12T04:25:17.431Z,10.90
2018-11-12T04:27:48.127Z,10.90
2018-11-12T04:30:18.442Z,10.90
2018-11-12T04:32:48.801Z,10.90
2018-11-12T04:35:20.195Z,10.90
2018-11-12T04:37:50.342Z,11.00
2018-11-12T04:40:20.836Z,11.00
2018-11-12T04:42:51.417Z,11.00
2018-11-12T04:45:23.021Z,11.00
2018-11-12T04:47:54.104Z,10.90
2018-11-12T04:50:27.619Z,10.90
2018-11-12T04:52:57.967Z,10.90
2018-11-12T04:55:28.428Z,10.80
2018-11-12T04:57:58.815Z,10.80
2018-11-12T05:00:29.718Z,10.90
2018-11-12T05:02:59.961Z,10.90
2018-11-12T05:05:30.371Z,10.90
2018-11-12T05:08:00.682Z,10.90
2018-11-12T05:10:31.021Z,10.90
2018-11-12T05:13:01.686Z,11.00
2018-11-12T05:15:32.499Z,11.00
2018-11-12T05:18:03.136Z,11.00
2018-11-12T05:20:34.063Z,11.00
2018-11-12T05:23:04.383Z,11.00
2018-11-12T05:25:35.668Z,10.90
2018-11-12T05:28:06.092Z,10.80
2018-11-12T05:30:36.575Z,10.80
2018-11-12T05:33:07.056Z,10.70
2018-11-12T05:35:37.656Z,10.80
2018-11-12T05:38:08.314Z,11.00
2018-11-12T05:40:38.572Z,11.00
2018-11-12T05:43:08.921Z,10.90
2018-11-12T05:45:39.499Z,10.90
2018-11-12T05:48:10.179Z,10.90
2018-11-12T05:50:40.548Z,10.90
2018-11-12T05:53:11.169Z,10.90
2018-11-12T05:55:44.566Z,11.00
2018-11-12T05:58:14.808Z,11.00
2018-11-12T06:00:45.049Z,11.10
2018-11-12T06:03:15.345Z,11.10
2018-11-12T06:05:45.703Z,11.10
2018-11-12T06:08:16.196Z,11.00
2018-11-12T06:10:46.508Z,11.00
2018-11-12T06:13:16.953Z,11.10
2018-11-12T06:15:47.210Z,11.00
2018-11-12T06:18:20.132Z,10.90
2018-11-12T06:20:50.650Z,11.00
2018-11-12T06:23:21.011Z,11.00
2018-11-12T06:25:51.398Z,11.00
2018-11-12T06:28:28.021Z,11.00
2018-11-12T06:30:58.531Z,10.90
2018-11-12T06:33:28.863Z,11.10
2018-11-12T06:35:59.127Z,11.10
2018-11-12T06:38:29.498Z,11.00
2018-11-12T06:41:00.849Z,11.00
2018-11-12T06:43:31.132Z,11.00
2018-11-12T06:46:02.473Z,10.90
2018-11-12T06:48:32.628Z,10.90
2018-11-12T06:51:03.114Z,11.00
2018-11-12T06:53:33.439Z,10.90
2018-11-12T06:56:03.866Z,10.90
2018-11-12T06:58:33.985Z,11.10
2018-11-12T07:01:04.360Z,11.10
2018-11-12T07:03:34.604Z,11.00
2018-11-12T07:06:04.799Z,11.10
2018-11-12T07:08:35.090Z,11.10
2018-11-12T07:11:05.438Z,11.00
2018-11-12T07:13:35.736Z,11.00
2018-11-12T07:16:06.078Z,11.10
2018-11-12T07:18:37.754Z,11.10
2018-11-12T07:21:08.528Z,11.10
2018-11-12T07:23:39.754Z,11.10
2018-11-12T07:26:10.027Z,11.10
2018-11-12T07:28:41.141Z,11.10
2018-11-12T07:31:12.302Z,11.10
2018-11-12T07:33:42.938Z,11.10
2018-11-12T07:36:13.271Z,11.00
2018-11-12T07:38:44.525Z,11.00
2018-11-12T07:41:15.080Z,11.00
2018-11-12T07:43:45.916Z,11.10
2018-11-12T07:46:16.161Z,11.10
2018-11-12T07:48:46.366Z,11.10
2018-11-12T07:51:25.163Z,11.10
2018-11-12T07:53:55.540Z,11.10
2018-11-12T07:56:25.980Z,11.00
2018-11-12T07:58:56.143Z,11.00
2018-11-12T08:01:26.394Z,11.00
2018-11-12T08:03:56.600Z,11.00
2018-11-12T08:06:26.932Z,11.10
2018-11-12T08:08:57.319Z,11.10
2018-11-12T08:11:27.726Z,11.20
2018-11-12T08:13:58.008Z,11.10
2018-11-12T08:16:29.634Z,11.10
2018-11-12T08:19:00.226Z,11.10
2018-11-12T08:21:30.448Z,11.10
2018-11-12T08:24:00.844Z,11.20
2018-11-12T08:26:31.092Z,11.20
2018-11-12T08:29:01.345Z,11.20
2018-11-12T08:31:32.147Z,11.30
2018-11-12T08:34:02.383Z,11.40
2018-11-12T08:36:33.237Z,11.50
2018-11-12T08:39:03.546Z,11.50
2018-11-12T08:41:34.125Z,11.60
2018-11-12T08:44:04.438Z,11.50
2018-11-12T08:46:34.825Z,11.60
2018-11-12T08:49:05.172Z,11.60
2018-11-12T08:51:35.540Z,11.80
2018-11-12T08:54:06.081Z,11.90
2018-11-12T08:56:36.468Z,12.10
2018-11-12T08:59:06.753Z,12.20
2018-11-12T09:01:37.217Z,12.40
2018-11-12T09:04:07.579Z,12.60
2018-11-12T09:06:38.380Z,12.60
2018-11-12T09:09:13.219Z,12.60
2018-11-12T09:11:43.653Z,12.60
2018-11-12T09:14:14.044Z,12.60
2018-11-12T09:16:44.211Z,12.60
2018-11-12T09:19:14.738Z,12.80
2018-11-12T09:21:45.031Z,13.20
2018-11-12T09:24:15.379Z,13.40
2018-11-12T09:26:55.091Z,13.40
2018-11-12T09:29:25.425Z,13.40
2018-11-12T09:31:55.852Z,13.30
2018-11-12T09:34:26.058Z,13.10
2018-11-12T09:36:56.384Z,13.00
2018-11-12T09:39:26.490Z,12.90
2018-11-12T09:41:59.631Z,12.80
2018-11-12T09:44:29.857Z,12.80
2018-11-12T09:47:00.109Z,12.80
2018-11-12T09:49:30.406Z,12.80
2018-11-12T09:52:00.714Z,13.10
2018-11-12T09:54:31.155Z,13.30
2018-11-12T09:57:07.593Z,13.50
2018-11-12T09:59:37.847Z,13.60
2018-11-12T10:02:09.098Z,13.60
2018-11-12T10:04:39.931Z,13.50
2018-11-12T10:07:10.606Z,13.30
2018-11-12T10:09:41.071Z,13.10
2018-11-12T10:14:51.040Z,13.10
2018-11-12T10:17:21.712Z,13.10
2018-11-12T10:19:49.037Z,12.90
2018-11-12T10:22:19.190Z,12.80
2018-11-12T10:24:49.395Z,12.70
2018-11-12T10:27:19.740Z,12.60
2018-11-12T10:29:49.975Z,12.70
2018-11-12T10:32:20.267Z,12.70
2018-11-12T10:34:50.788Z,12.70
2018-11-12T10:37:20.940Z,12.80
2018-11-12T10:39:51.328Z,12.70
2018-11-12T10:42:21.525Z,12.70
2018-11-12T10:44:51.821Z,12.80
2018-11-12T10:47:22.301Z,12.80
2018-11-12T10:49:53.319Z,12.80
2018-11-12T10:52:23.659Z,12.80
2018-11-12T10:55:04.889Z,12.80
2018-11-12T10:57:25.451Z,12.70
2018-11-12T10:59:55.681Z,12.70
2018-11-12T11:02:30.929Z,12.70
2018-11-12T11:05:02.635Z,12.80
2018-11-12T11:07:32.876Z,12.80
2018-11-12T11:10:03.663Z,12.80
2018-11-12T11:12:33.970Z,12.90
2018-11-12T11:15:04.542Z,13.00
2018-11-12T11:17:34.906Z,13.00
2018-11-12T11:20:05.441Z,13.00
2018-11-12T11:22:35.632Z,13.00
2018-11-12T11:25:06.048Z,13.10
2018-11-12T11:27:36.452Z,13.30
2018-11-12T11:30:10.073Z,13.50
2018-11-12T11:32:40.362Z,13.60
2018-11-12T11:35:11.968Z,13.60
2018-11-12T11:37:42.521Z,13.60
2018-11-12T11:40:19.823Z,13.60
2018-11-12T11:42:50.129Z,13.60
2018-11-12T11:45:23.456Z,13.50
2018-11-12T11:47:54.258Z,13.60
2018-11-12T11:50:26.083Z,13.50
2018-11-12T11:52:56.635Z,13.50
2018-11-12T11:55:26.975Z,13.60
2018-11-12T11:57:57.395Z,13.70
2018-11-12T12:00:28.885Z,13.70
2018-11-12T12:03:00.102Z,13.70
2018-11-12T12:05:30.543Z,13.70
2018-11-12T12:08:00.638Z,13.80
2018-11-12T12:10:30.831Z,13.80
2018-11-12T12:13:01.087Z,13.90
2018-11-12T12:15:31.236Z,13.70
2018-11-12T12:18:01.680Z,13.70
2018-11-12T12:20:32.068Z,13.50
2018-11-12T12:23:02.222Z,13.40
2018-11-12T12:25:32.477Z,13.30
2018-11-12T12:28:02.668Z,13.20
2018-11-12T12:30:32.882Z,13.20
2018-11-12T12:33:03.091Z,13.10
2018-11-12T12:35:33.417Z,13.10
2018-11-12T12:38:03.646Z,13.10
2018-11-12T12:40:33.886Z,13.30
2018-11-12T12:43:04.145Z,13.20
2018-11-12T12:45:34.455Z,13.20
2018-11-12T12:48:04.670Z,13.10
2018-11-12T12:50:34.935Z,13.10
2018-11-12T12:53:05.332Z,13.00
2018-11-12T12:55:35.552Z,12.90
2018-11-12T12:58:05.866Z,12.90
2018-11-12T13:00:35.959Z,12.80
2018-11-12T13:03:06.804Z,12.70
2018-11-12T13:05:36.948Z,12.60
2018-11-12T13:08:07.591Z,12.60
2018-11-12T13:10:38.193Z,12.50
2018-11-12T13:13:09.569Z,12.50
2018-11-12T13:15:39.825Z,12.40
2018-11-12T13:18:10.345Z,12.30
2018-11-12T13:20:40.707Z,12.20
2018-11-12T13:23:11.247Z,12.10
2018-11-12T13:25:41.731Z,12.10
2018-11-12T13:28:11.936Z,12.00
2018-11-12T13:30:43.190Z,12.00
2018-11-12T13:33:13.402Z,11.90
2018-11-12T13:35:43.638Z,11.90
2018-11-12T13:38:13.852Z,11.90
2018-11-12T13:40:44.150Z,11.90
2018-11-12T13:43:14.350Z,12.00
2018-11-12T13:45:44.587Z,11.90
2018-11-12T13:48:14.822Z,12.00
2018-11-12T13:50:45.823Z,12.00
2018-11-12T13:53:16.538Z,12.00
2018-11-12T13:55:47.254Z,12.00
2018-11-12T13:58:17.948Z,12.00
2018-11-12T14:00:48.257Z,11.90
2018-11-12T14:03:18.878Z,11.90
2018-11-12T14:05:49.421Z,11.90
2018-11-12T14:08:19.852Z,11.90
2018-11-12T14:10:52.134Z,11.90
2018-11-12T14:13:22.673Z,11.90
2018-11-12T14:15:54.343Z,11.90
2018-11-12T14:18:25.497Z,11.90
2018-11-12T14:20:56.378Z,11.90
2018-11-12T14:23:27.084Z,11.90
2018-11-12T14:25:58.687Z,11.90
2018-11-12T14:28:29.886Z,11.90
2018-11-12T14:31:00.752Z,11.90
2018-11-12T14:33:31.273Z,12.00
2018-11-12T14:36:01.972Z,12.00
2018-11-12T14:38:32.277Z,12.00
2018-11-12T14:41:02.763Z,12.00
2018-11-12T14:43:39.104Z,11.90
2018-11-12T14:46:09.362Z,11.90
2018-11-12T14:48:39.802Z,11.90
2018-11-12T14:51:10.133Z,11.90
2018-11-12T14:53:40.413Z,12.00
2018-11-12T14:56:10.607Z,11.90
2018-11-12T14:58:47.169Z,11.90
2018-11-12T15:01:18.822Z,11.90
2018-11-12T15:03:50.827Z,11.90
2018-11-12T15:06:21.008Z,11.80
2018-11-12T15:08:51.318Z,11.80
2018-11-12T15:11:21.441Z,11.80
2018-11-12T15:13:52.513Z,11.80
2018-11-12T15:16:23.159Z,11.80
2018-11-12T15:18:53.520Z,11.80
2018-11-12T15:21:23.967Z,11.80
2018-11-12T15:23:54.591Z,11.70
2018-11-12T15:26:24.884Z,11.70
2018-11-12T15:28:55.353Z,11.70
2018-11-12T15:31:25.755Z,11.70
2018-11-12T15:33:56.279Z,11.70
2018-11-12T15:36:26.788Z,11.60
2018-11-12T15:38:57.029Z,11.60
2018-11-12T15:41:28.080Z,11.50
2018-11-12T15:43:58.294Z,11.40
2018-11-12T15:46:28.606Z,11.40
2018-11-12T15:48:59.263Z,11.30
2018-11-12T15:51:30.047Z,11.30
2018-11-12T15:54:00.310Z,11.30
2018-11-12T15:56:30.556Z,11.30
2018-11-12T15:59:00.923Z,11.20
2018-11-12T16:01:31.409Z,11.20
2018-11-12T16:04:01.747Z,11.20
2018-11-12T16:06:32.368Z,11.30
2018-11-12T16:09:03.145Z,11.20
2018-11-12T16:11:33.464Z,11.20
2018-11-12T16:14:03.867Z,11.20
2018-11-12T16:16:34.456Z,11.30
2018-11-12T16:19:05.265Z,11.20
2018-11-12T16:21:36.903Z,11.20
2018-11-12T16:24:07.755Z,11.20
2018-11-12T16:26:39.278Z,11.30
2018-11-12T16:29:09.633Z,11.30
2018-11-12T16:31:39.890Z,11.20
2018-11-12T16:34:10.062Z,11.30
2018-11-12T16:36:40.332Z,11.30
2018-11-12T16:39:12.169Z,11.20
2018-11-12T16:41:42.392Z,11.20
2018-11-12T16:44:12.598Z,11.20
2018-11-12T16:46:42.806Z,11.20
2018-11-12T16:49:12.934Z,11.20
2018-11-12T16:51:43.300Z,11.20
2018-11-12T16:54:13.433Z,11.20
2018-11-12T16:56:43.674Z,11.20
2018-11-12T16:59:14.205Z,11.20
2018-11-12T17:01:44.700Z,11.20
2018-11-12T17:04:15.182Z,11.20
2018-11-12T17:06:45.481Z,11.10
2018-11-12T17:09:15.753Z,11.10
2018-11-12T17:11:45.961Z,11.10
2018-11-12T17:14:16.197Z,11.10
2018-11-12T17:16:46.691Z,11.00
2018-11-12T17:19:16.880Z,11.00
2018-11-12T17:21:47.706Z,11.00
2018-11-12T17:24:17.894Z,11.10
2018-11-12T17:26:48.126Z,11.00
2018-11-12T17:29:18.352Z,11.00
2018-11-12T17:31:48.827Z,11.00
2018-11-12T17:34:18.933Z,11.00
2018-11-12T17:36:49.214Z,11.00
2018-11-12T17:39:19.436Z,11.00
2018-11-12T17:41:49.661Z,11.10
2018-11-12T17:44:19.821Z,11.10
2018-11-12T17:46:50.030Z,11.10
2018-11-12T17:49:20.294Z,11.20
2018-11-12T17:51:50.471Z,11.20
2018-11-12T17:54:20.652Z,11.20
2018-11-12T17:56:50.828Z,11.20
2018-11-12T17:59:20.988Z,11.20
2018-11-12T18:01:51.315Z,11.20
2018-11-12T18:04:21.752Z,11.30
2018-11-12T18:06:52.013Z,11.30
2018-11-12T18:09:22.345Z,11.40
2018-11-12T18:11:53.523Z,11.40
2018-11-12T18:14:23.824Z,11.40
2018-11-12T18:16:54.119Z,11.40
2018-11-12T18:19:24.504Z,11.40
2018-11-12T18:21:54.809Z,11.40
2018-11-12T18:24:25.355Z,11.40
2018-11-12T18:26:56.430Z,11.20
2018-11-12T18:29:26.954Z,11.20
2018-11-12T18:31:59.043Z,11.20
2018-11-12T18:34:29.421Z,11.20
2018-11-12T18:37:00.355Z,11.10
2018-11-12T18:39:32.489Z,11.10
2018-11-12T18:42:03.179Z,11.00
2018-11-12T18:44:35.012Z,11.10
2018-11-12T18:47:06.664Z,11.00
2018-11-12T18:49:37.512Z,11.00
2018-11-12T18:52:08.459Z,11.10
2018-11-12T18:54:39.573Z,11.10
2018-11-12T18:57:11.358Z,11.20
2018-11-12T18:59:41.587Z,11.20
2018-11-12T19:02:12.019Z,11.20
2018-11-12T19:04:42.311Z,11.20
2018-11-12T19:07:12.625Z,11.20
2018-11-12T19:09:42.909Z,11.10
2018-11-12T19:12:14.207Z,11.20
2018-11-12T19:14:46.025Z,11.10
2018-11-12T19:17:17.502Z,11.20
2018-11-12T19:19:47.897Z,11.20
2018-11-12T19:22:18.274Z,11.10
2018-11-12T19:24:49.053Z,11.10
2018-11-12T19:27:19.468Z,11.10
2018-11-12T19:29:50.122Z,11.10
2018-11-12T19:32:21.056Z,11.10
2018-11-12T19:34:51.528Z,11.10
2018-11-12T19:37:22.926Z,11.00
2018-11-12T19:39:53.348Z,10.90
2018-11-12T19:42:23.923Z,10.80
2018-11-12T19:44:54.062Z,10.80
2018-11-12T19:47:24.313Z,10.70
2018-11-12T19:49:54.538Z,10.70
2018-11-12T19:52:25.094Z,10.60
2018-11-12T19:54:55.309Z,10.60
2018-11-12T19:57:26.338Z,10.60
2018-11-12T19:59:56.559Z,10.50
2018-11-12T20:02:26.949Z,10.50
2018-11-12T20:05:03.392Z,10.50
2018-11-12T20:07:33.636Z,10.60
2018-11-12T20:10:04.604Z,10.50
2018-11-12T20:12:37.382Z,10.50
2018-11-12T20:15:08.900Z,10.50
2018-11-12T20:17:39.199Z,10.40
2018-11-12T20:20:17.863Z,10.40
2018-11-12T20:22:48.682Z,10.50
2018-11-12T20:25:19.740Z,10.50
2018-11-12T20:27:50.911Z,10.50
2018-11-12T20:30:30.481Z,10.50
2018-11-12T20:33:01.602Z,10.40
2018-11-12T20:35:31.960Z,10.40
2018-11-12T20:38:02.204Z,10.30
2018-11-12T20:40:32.426Z,10.30
2018-11-12T20:43:02.630Z,10.30
2018-11-12T20:45:32.789Z,10.40
2018-11-12T20:48:03.189Z,10.40
2018-11-12T20:50:33.353Z,10.30
2018-11-12T20:53:03.563Z,10.30
2018-11-12T20:55:33.854Z,10.20
2018-11-12T20:58:04.051Z,10.20
2018-11-12T21:00:34.333Z,10.10
2018-11-12T21:03:04.630Z,10.10
2018-11-12T21:05:34.776Z,10.00
2018-11-12T21:08:04.975Z,10.00
2018-11-12T21:10:35.191Z,10.00
2018-11-12T21:13:05.425Z,9.90
2018-11-12T21:15:35.670Z,10.00
2018-11-12T21:18:06.093Z,10.00
2018-11-12T21:20:36.211Z,10.00
2018-11-12T21:23:06.906Z,10.00
2018-11-12T21:25:37.056Z,10.00
2018-11-12T21:28:07.337Z,10.10
2018-11-12T21:30:37.675Z,10.10
2018-11-12T21:33:07.902Z,10.10
2018-11-12T21:35:38.019Z,10.10
2018-11-12T21:38:08.254Z,10.10
2018-11-12T21:40:38.436Z,10.10
2018-11-12T21:43:08.682Z,10.10
2018-11-12T21:45:38.814Z,10.10
2018-11-12T21:48:09.031Z,10.10
2018-11-12T21:50:39.205Z,10.00
2018-11-12T21:53:09.572Z,10.00
2018-11-12T21:55:39.823Z,9.90
2018-11-12T21:58:10.166Z,9.90
2018-11-12T22:00:40.482Z,9.90
2018-11-12T22:03:10.893Z,9.90
2018-11-12T22:05:41.211Z,9.90
2018-11-12T22:08:14.087Z,9.90
2018-11-12T22:10:44.257Z,9.90
2018-11-12T22:13:14.469Z,9.90
2018-11-12T22:15:44.911Z,9.80
2018-11-12T22:18:15.030Z,9.80
2018-11-12T22:20:45.596Z,9.80
2018-11-12T22:23:15.803Z,9.80
2018-11-12T22:25:45.932Z,9.80
2018-11-12T22:28:16.150Z,9.80
2018-11-12T22:30:46.300Z,9.90
2018-11-12T22:33:16.534Z,9.90
2018-11-12T22:35:46.689Z,9.80
2018-11-12T22:38:16.960Z,9.90
2018-11-12T22:40:47.087Z,9.90
2018-11-12T22:43:17.209Z,9.90
2018-11-12T22:45:47.379Z,9.90
2018-11-12T22:48:17.647Z,9.90
2018-11-12T22:50:48.252Z,9.90
2018-11-12T22:53:18.631Z,10.00
2018-11-12T22:55:48.813Z,10.00
2018-11-12T22:58:18.987Z,10.00
2018-11-12T23:00:49.210Z,10.00
2018-11-12T23:03:19.427Z,10.00
2018-11-12T23:05:49.702Z,10.00
2018-11-12T23:08:19.950Z,10.10
2018-11-12T23:10:50.124Z,10.10
2018-11-12T23:13:20.329Z,10.10
2018-11-12T23:15:50.426Z,10.00
2018-11-12T23:18:20.545Z,10.00
2018-11-12T23:20:50.738Z,10.00
2018-11-12T23:23:20.871Z,10.00
2018-11-12T23:25:51.058Z,9.90
2018-11-12T23:28:21.384Z,9.90
2018-11-12T23:30:51.451Z,9.90
2018-11-12T23:33:21.679Z,9.90
2018-11-12T23:35:52.425Z,9.90
2018-11-12T23:38:22.639Z,9.90
2018-11-12T23:40:52.779Z,9.90
2018-11-12T23:43:22.956Z,9.90
2018-11-12T23:45:53.101Z,9.90
2018-11-12T23:48:23.316Z,9.80
2018-11-12T23:50:53.531Z,9.80
2018-11-12T23:53:23.684Z,9.70
2018-11-12T23:55:53.800Z,9.70
2018-11-12T23:58:23.938Z,9.60
